sensor_id;sensor_type;location;lat;lon;timestamp;pressure;altitude;pressure_sealevel;temperature;humidity
65329;BME280;51941;52.210;5.158;2022-08-21T00:00:54;101471.56;;;13.89;77.42
65329;BME280;51941;52.210;5.158;2022-08-21T00:03:22;101517.88;;;14.16;77.23
65329;BME280;51941;52.210;5.158;2022-08-21T00:05:50;101629.09;;;14.94;77.35
65329;BME280;51941;52.210;5.158;2022-08-21T00:08:17;101544.31;;;14.34;77.75
65329;BME280;51941;52.210;5.158;2022-08-21T00:10:45;101621.91;;;14.95;77.46
65329;BME280;51941;52.210;5.158;2022-08-21T00:13:13;101594.34;;;14.72;77.60
65329;BME280;51941;52.210;5.158;2022-08-21T00:15:40;101562.44;;;14.49;77.70
65329;BME280;51941;52.210;5.158;2022-08-21T00:18:09;101624.81;;;14.93;77.79
65329;BME280;51941;52.210;5.158;2022-08-21T00:20:39;101635.75;;;14.92;77.59
65329;BME280;51941;52.210;5.158;2022-08-21T00:23:06;101621.59;;;14.91;77.69
65329;BME280;51941;52.210;5.158;2022-08-21T00:25:33;101537.38;;;14.33;77.63
65329;BME280;51941;52.210;5.158;2022-08-21T00:28:01;101616.00;;;14.93;77.57
65329;BME280;51941;52.210;5.158;2022-08-21T00:30:30;101499.72;;;14.13;77.64
65329;BME280;51941;52.210;5.158;2022-08-21T00:32:57;101443.84;;;13.85;77.55
65329;BME280;51941;52.210;5.158;2022-08-21T00:35:27;101609.63;;;14.94;77.72
65329;BME280;51941;52.210;5.158;2022-08-21T00:37:55;101525.44;;;14.36;77.54
65329;BME280;51941;52.210;5.158;2022-08-21T00:40:26;101607.19;;;14.92;77.67
65329;BME280;51941;52.210;5.158;2022-08-21T00:42:53;101442.22;;;13.84;77.55
65329;BME280;51941;52.210;5.158;2022-08-21T00:45:21;101612.81;;;14.91;77.66
65329;BME280;51941;52.210;5.158;2022-08-21T00:47:48;101506.47;;;14.32;77.81
65329;BME280;51941;52.210;5.158;2022-08-21T00:50:15;101525.09;;;14.32;78.22
65329;BME280;51941;52.210;5.158;2022-08-21T00:52:42;101546.84;;;14.41;78.11
65329;BME280;51941;52.210;5.158;2022-08-21T00:55:11;101575.81;;;14.66;78.35
65329;BME280;51941;52.210;5.158;2022-08-21T00:57:42;101607.38;;;14.86;77.98
65329;BME280;51941;52.210;5.158;2022-08-21T01:00:14;101605.19;;;14.83;78.38
65329;BME280;51941;52.210;5.158;2022-08-21T01:02:41;101584.31;;;14.63;78.52
65329;BME280;51941;52.210;5.158;2022-08-21T01:05:09;101607.53;;;14.79;78.70
65329;BME280;51941;52.210;5.158;2022-08-21T01:07:36;101510.47;;;14.18;78.27
65329;BME280;51941;52.210;5.158;2022-08-21T01:10:05;101605.91;;;14.78;78.48
65329;BME280;51941;52.210;5.158;2022-08-21T01:12:34;101568.56;;;14.50;78.42
65329;BME280;51941;52.210;5.158;2022-08-21T01:15:04;101608.78;;;14.76;78.35
65329;BME280;51941;52.210;5.158;2022-08-21T01:17:32;101534.53;;;14.23;78.71
65329;BME280;51941;52.210;5.158;2022-08-21T01:20:00;101611.38;;;14.71;78.74
65329;BME280;51941;52.210;5.158;2022-08-21T01:22:29;101622.50;;;14.68;79.35
65329;BME280;51941;52.210;5.158;2022-08-21T01:24:56;101487.59;;;13.77;79.21
65329;BME280;51941;52.210;5.158;2022-08-21T01:27:22;101623.56;;;14.67;78.96
65329;BME280;51941;52.210;5.158;2022-08-21T01:29:53;101513.91;;;14.02;78.81
65329;BME280;51941;52.210;5.158;2022-08-21T01:32:22;101472.91;;;13.75;78.64
65329;BME280;51941;52.210;5.158;2022-08-21T01:34:50;101534.16;;;14.03;79.12
65329;BME280;51941;52.210;5.158;2022-08-21T01:37:18;101625.91;;;14.64;79.04
65329;BME280;51941;52.210;5.158;2022-08-21T01:39:47;101492.28;;;13.87;79.09
65329;BME280;51941;52.210;5.158;2022-08-21T01:42:14;101614.44;;;14.63;79.17
65329;BME280;51941;52.210;5.158;2022-08-21T01:44:41;101622.66;;;14.62;79.20
65329;BME280;51941;52.210;5.158;2022-08-21T01:47:11;101604.00;;;14.62;79.28
65329;BME280;51941;52.210;5.158;2022-08-21T01:49:39;101432.00;;;13.52;79.05
65329;BME280;51941;52.210;5.158;2022-08-21T01:52:07;101560.53;;;14.33;79.50
65329;BME280;51941;52.210;5.158;2022-08-21T01:54:35;101602.63;;;14.59;79.31
65329;BME280;51941;52.210;5.158;2022-08-21T01:57:04;101523.34;;;14.10;79.48
65329;BME280;51941;52.210;5.158;2022-08-21T01:59:31;101518.72;;;14.05;79.83
65329;BME280;51941;52.210;5.158;2022-08-21T02:01:58;101599.66;;;14.56;79.71
65329;BME280;51941;52.210;5.158;2022-08-21T02:04:25;101441.72;;;13.58;79.45
65329;BME280;51941;52.210;5.158;2022-08-21T02:06:52;101582.63;;;14.57;79.71
65329;BME280;51941;52.210;5.158;2022-08-21T02:09:19;101602.53;;;14.54;79.82
65329;BME280;51941;52.210;5.158;2022-08-21T02:11:47;101374.13;;;13.19;79.58
65329;BME280;51941;52.210;5.158;2022-08-21T02:14:15;101491.50;;;13.86;79.26
65329;BME280;51941;52.210;5.158;2022-08-21T02:16:44;101442.28;;;13.60;79.20
65329;BME280;51941;52.210;5.158;2022-08-21T02:19:13;101509.50;;;13.96;79.32
65329;BME280;51941;52.210;5.158;2022-08-21T02:21:41;101355.44;;;13.03;79.57
65329;BME280;51941;52.210;5.158;2022-08-21T02:24:08;101588.53;;;14.47;79.91
65329;BME280;51941;52.210;5.158;2022-08-21T02:26:34;101422.31;;;13.35;79.45
65329;BME280;51941;52.210;5.158;2022-08-21T02:29:03;101492.78;;;13.84;79.50
65329;BME280;51941;52.210;5.158;2022-08-21T02:31:31;101480.59;;;13.88;79.48
65329;BME280;51941;52.210;5.158;2022-08-21T02:33:58;101568.72;;;14.43;79.92
65329;BME280;51941;52.210;5.158;2022-08-21T02:36:26;101576.94;;;14.41;80.27
65329;BME280;51941;52.210;5.158;2022-08-21T02:38:54;101394.59;;;13.19;80.04
65329;BME280;51941;52.210;5.158;2022-08-21T02:41:21;101539.19;;;14.16;79.99
65329;BME280;51941;52.210;5.158;2022-08-21T02:43:48;101568.38;;;14.39;79.84
65329;BME280;51941;52.210;5.158;2022-08-21T02:46:17;101583.59;;;14.39;80.08
65329;BME280;51941;52.210;5.158;2022-08-21T02:48:46;101484.13;;;13.77;80.34
65329;BME280;51941;52.210;5.158;2022-08-21T02:51:15;101571.53;;;14.36;80.44
65329;BME280;51941;52.210;5.158;2022-08-21T02:53:43;101387.19;;;13.21;80.34
65329;BME280;51941;52.210;5.158;2022-08-21T02:56:12;101479.63;;;13.77;80.43
65329;BME280;51941;52.210;5.158;2022-08-21T02:58:40;101422.53;;;13.45;80.23
65329;BME280;51941;52.210;5.158;2022-08-21T03:01:08;101522.56;;;13.97;80.35
65329;BME280;51941;52.210;5.158;2022-08-21T03:03:35;101400.94;;;13.29;80.42
65329;BME280;51941;52.210;5.158;2022-08-21T03:06:05;101459.53;;;13.46;80.34
65329;BME280;51941;52.210;5.158;2022-08-21T03:08:32;101494.72;;;13.88;80.68
65329;BME280;51941;52.210;5.158;2022-08-21T03:10:59;101499.72;;;13.85;80.48
65329;BME280;51941;52.210;5.158;2022-08-21T03:13:26;101579.91;;;14.28;80.95
65329;BME280;51941;52.210;5.158;2022-08-21T03:15:54;101505.97;;;13.79;80.65
65329;BME280;51941;52.210;5.158;2022-08-21T03:18:21;101401.09;;;13.11;80.81
65329;BME280;51941;52.210;5.158;2022-08-21T03:20:48;101343.69;;;12.87;80.75
65329;BME280;51941;52.210;5.158;2022-08-21T03:23:17;101552.34;;;14.23;81.33
65329;BME280;51941;52.210;5.158;2022-08-21T03:25:46;101556.31;;;14.20;81.78
65329;BME280;51941;52.210;5.158;2022-08-21T03:28:15;101331.59;;;12.79;81.00
65329;BME280;51941;52.210;5.158;2022-08-21T03:30:43;101549.84;;;14.16;80.88
65329;BME280;51941;52.210;5.158;2022-08-21T03:33:11;101553.22;;;14.12;80.70
65329;BME280;51941;52.210;5.158;2022-08-21T03:35:38;101566.28;;;14.13;80.60
65329;BME280;51941;52.210;5.158;2022-08-21T03:38:05;101511.97;;;13.86;81.42
65329;BME280;51941;52.210;5.158;2022-08-21T03:40:34;101434.22;;;13.32;80.97
65329;BME280;51941;52.210;5.158;2022-08-21T03:43:01;101492.56;;;13.74;81.15
65329;BME280;51941;52.210;5.158;2022-08-21T03:45:27;101469.00;;;13.65;80.99
65329;BME280;51941;52.210;5.158;2022-08-21T03:47:57;101461.69;;;13.61;81.17
65329;BME280;51941;52.210;5.158;2022-08-21T03:50:25;101414.25;;;13.18;81.14
65329;BME280;51941;52.210;5.158;2022-08-21T03:52:52;101545.34;;;14.05;81.37
65329;BME280;51941;52.210;5.158;2022-08-21T03:55:19;101423.38;;;13.22;81.32
65329;BME280;51941;52.210;5.158;2022-08-21T03:57:48;101454.00;;;13.48;81.38
65329;BME280;51941;52.210;5.158;2022-08-21T04:00:16;101535.41;;;14.00;81.45
65329;BME280;51941;52.210;5.158;2022-08-21T04:02:45;101547.56;;;13.96;81.66
65329;BME280;51941;52.210;5.158;2022-08-21T04:05:13;101363.09;;;12.87;81.66
65329;BME280;51941;52.210;5.158;2022-08-21T04:07:52;101518.81;;;13.82;82.42
65329;BME280;51941;52.210;5.158;2022-08-21T04:10:20;101533.38;;;13.91;82.00
65329;BME280;51941;52.210;5.158;2022-08-21T04:12:48;101451.53;;;13.35;81.90
65329;BME280;51941;52.210;5.158;2022-08-21T04:15:15;101509.47;;;13.67;82.05
65329;BME280;51941;52.210;5.158;2022-08-21T04:17:42;101416.81;;;13.01;81.98
65329;BME280;51941;52.210;5.158;2022-08-21T04:20:09;101552.00;;;13.79;82.04
65329;BME280;51941;52.210;5.158;2022-08-21T04:22:36;101471.00;;;13.23;82.34
65329;BME280;51941;52.210;5.158;2022-08-21T04:25:03;101404.81;;;12.87;82.21
65329;BME280;51941;52.210;5.158;2022-08-21T04:27:30;101543.47;;;13.77;82.41
65329;BME280;51941;52.210;5.158;2022-08-21T04:29:59;101564.50;;;13.79;82.49
65329;BME280;51941;52.210;5.158;2022-08-21T04:32:26;101353.41;;;12.35;82.41
65329;BME280;51941;52.210;5.158;2022-08-21T04:34:58;101371.44;;;12.68;82.18
65329;BME280;51941;52.210;5.158;2022-08-21T04:37:26;101462.91;;;13.18;82.64
65329;BME280;51941;52.210;5.158;2022-08-21T04:39:53;101550.28;;;13.85;82.29
65329;BME280;51941;52.210;5.158;2022-08-21T04:42:22;101341.50;;;12.49;82.35
65329;BME280;51941;52.210;5.158;2022-08-21T04:44:49;101523.69;;;13.61;82.50
65329;BME280;51941;52.210;5.158;2022-08-21T04:47:17;101497.69;;;13.52;82.43
65329;BME280;51941;52.210;5.158;2022-08-21T04:49:44;101569.13;;;13.95;82.45
65329;BME280;51941;52.210;5.158;2022-08-21T04:52:13;101560.56;;;13.93;82.67
65329;BME280;51941;52.210;5.158;2022-08-21T04:54:42;101515.34;;;13.69;82.51
65329;BME280;51941;52.210;5.158;2022-08-21T04:57:10;101555.84;;;13.83;82.65
65329;BME280;51941;52.210;5.158;2022-08-21T04:59:40;101581.56;;;14.06;82.97
65329;BME280;51941;52.210;5.158;2022-08-21T05:02:08;101564.34;;;14.09;82.89
65329;BME280;51941;52.210;5.158;2022-08-21T05:04:41;101491.31;;;13.64;82.86
65329;BME280;51941;52.210;5.158;2022-08-21T05:07:12;101468.69;;;13.50;82.74
65329;BME280;51941;52.210;5.158;2022-08-21T05:09:41;101572.03;;;14.22;82.93
65329;BME280;51941;52.210;5.158;2022-08-21T05:12:09;101477.66;;;13.61;82.68
65329;BME280;51941;52.210;5.158;2022-08-21T05:14:36;101443.50;;;13.41;83.32
65329;BME280;51941;52.210;5.158;2022-08-21T05:17:03;101576.75;;;14.31;82.84
65329;BME280;51941;52.210;5.158;2022-08-21T05:19:30;101382.25;;;13.01;82.59
65329;BME280;51941;52.210;5.158;2022-08-21T05:21:58;101450.03;;;13.62;82.86
65329;BME280;51941;52.210;5.158;2022-08-21T05:24:26;101549.03;;;14.16;82.92
65329;BME280;51941;52.210;5.158;2022-08-21T05:26:53;101509.63;;;14.01;82.93
65329;BME280;51941;52.210;5.158;2022-08-21T05:29:20;101375.63;;;13.27;82.85
65329;BME280;51941;52.210;5.158;2022-08-21T05:31:47;101425.97;;;13.68;82.53
65329;BME280;51941;52.210;5.158;2022-08-21T05:34:18;101580.44;;;14.70;82.60
65329;BME280;51941;52.210;5.158;2022-08-21T05:36:45;101579.25;;;14.78;82.56
65329;BME280;51941;52.210;5.158;2022-08-21T05:39:14;101459.13;;;14.06;82.21
65329;BME280;51941;52.210;5.158;2022-08-21T05:41:41;101426.13;;;13.79;82.34
65329;BME280;51941;52.210;5.158;2022-08-21T05:44:08;101423.44;;;13.90;81.92
65329;BME280;51941;52.210;5.158;2022-08-21T05:46:34;101175.78;;;12.33;82.09
65329;BME280;51941;52.210;5.158;2022-08-21T05:49:02;101471.03;;;14.32;82.03
65329;BME280;51941;52.210;5.158;2022-08-21T05:51:28;101164.72;;;12.65;82.14
65329;BME280;51941;52.210;5.158;2022-08-21T05:53:55;101492.44;;;14.82;82.48
65329;BME280;51941;52.210;5.158;2022-08-21T05:56:23;101375.50;;;14.19;81.86
65329;BME280;51941;52.210;5.158;2022-08-21T05:58:50;101446.16;;;14.71;81.97
65329;BME280;51941;52.210;5.158;2022-08-21T06:01:17;101452.28;;;14.89;81.59
65329;BME280;51941;52.210;5.158;2022-08-21T06:03:44;101567.13;;;15.71;81.79
65329;BME280;51941;52.210;5.158;2022-08-21T06:06:11;101412.31;;;14.89;81.63
65329;BME280;51941;52.210;5.158;2022-08-21T06:08:37;101571.84;;;16.07;81.32
65329;BME280;51941;52.210;5.158;2022-08-21T06:11:05;101520.22;;;15.80;80.97
65329;BME280;51941;52.210;5.158;2022-08-21T06:13:34;101575.81;;;16.26;81.07
65329;BME280;51941;52.210;5.158;2022-08-21T06:16:05;101501.06;;;15.83;81.22
65329;BME280;51941;52.210;5.158;2022-08-21T06:18:34;101490.50;;;15.93;80.92
65329;BME280;51941;52.210;5.158;2022-08-21T06:21:01;101594.31;;;16.60;80.98
65329;BME280;51941;52.210;5.158;2022-08-21T06:23:27;101579.78;;;16.73;80.77
65329;BME280;51941;52.210;5.158;2022-08-21T06:25:54;101494.66;;;16.33;81.05
65329;BME280;51941;52.210;5.158;2022-08-21T06:28:22;101589.25;;;17.54;81.64
65329;BME280;51941;52.210;5.158;2022-08-21T06:30:50;101478.06;;;17.89;80.11
65329;BME280;51941;52.210;5.158;2022-08-21T06:33:17;101572.81;;;19.51;77.78
65329;BME280;51941;52.210;5.158;2022-08-21T06:35:44;101435.34;;;19.49;74.67
65329;BME280;51941;52.210;5.158;2022-08-21T06:38:11;101575.25;;;21.34;70.96
65329;BME280;51941;52.210;5.158;2022-08-21T06:40:38;101376.28;;;20.85;68.63
65329;BME280;51941;52.210;5.158;2022-08-21T06:43:07;101386.28;;;21.51;65.35
65329;BME280;51941;52.210;5.158;2022-08-21T06:45:34;101570.78;;;23.27;62.92
65329;BME280;51941;52.210;5.158;2022-08-21T06:48:03;101512.63;;;23.30;60.97
65329;BME280;51941;52.210;5.158;2022-08-21T06:50:30;101503.22;;;23.68;59.79
65329;BME280;51941;52.210;5.158;2022-08-21T06:53:02;101429.66;;;23.58;57.85
65329;BME280;51941;52.210;5.158;2022-08-21T06:55:30;101565.03;;;24.61;57.42
65329;BME280;51941;52.210;5.158;2022-08-21T06:57:57;101458.28;;;24.08;56.27
65329;BME280;51941;52.210;5.158;2022-08-21T07:00:24;101503.09;;;24.59;55.50
65329;BME280;51941;52.210;5.158;2022-08-21T07:02:50;101437.50;;;24.18;54.72
65329;BME280;51941;52.210;5.158;2022-08-21T07:05:19;101571.16;;;25.19;54.40
65329;BME280;51941;52.210;5.158;2022-08-21T07:07:46;101542.72;;;25.08;54.59
65329;BME280;51941;52.210;5.158;2022-08-21T07:10:13;101423.97;;;24.40;54.06
65329;BME280;51941;52.210;5.158;2022-08-21T07:12:40;101543.38;;;25.36;53.56
65329;BME280;51941;52.210;5.158;2022-08-21T07:15:08;101463.84;;;24.79;53.05
65329;BME280;51941;52.210;5.158;2022-08-21T07:17:35;101545.72;;;25.29;52.93
65329;BME280;51941;52.210;5.158;2022-08-21T07:20:03;101533.13;;;25.33;53.02
65329;BME280;51941;52.210;5.158;2022-08-21T07:22:31;101578.78;;;25.88;52.63
65329;BME280;51941;52.210;5.158;2022-08-21T07:24:58;101531.66;;;25.75;51.79
65329;BME280;51941;52.210;5.158;2022-08-21T07:27:25;101502.81;;;25.79;51.53
65329;BME280;51941;52.210;5.158;2022-08-21T07:29:52;101403.97;;;25.20;50.69
65329;BME280;51941;52.210;5.158;2022-08-21T07:32:19;101586.50;;;26.20;51.12
65329;BME280;51941;52.210;5.158;2022-08-21T07:34:46;101463.97;;;25.36;51.01
65329;BME280;51941;52.210;5.158;2022-08-21T07:37:13;101441.72;;;25.16;51.14
65329;BME280;51941;52.210;5.158;2022-08-21T07:39:41;101512.38;;;25.85;51.09
65329;BME280;51941;52.210;5.158;2022-08-21T07:42:09;101432.22;;;25.28;50.95
65329;BME280;51941;52.210;5.158;2022-08-21T07:44:36;101532.16;;;25.86;50.95
65329;BME280;51941;52.210;5.158;2022-08-21T07:47:03;101595.94;;;26.40;51.00
65329;BME280;51941;52.210;5.158;2022-08-21T07:49:30;101465.47;;;25.76;50.32
65329;BME280;51941;52.210;5.158;2022-08-21T07:51:58;101514.53;;;26.06;50.28
65329;BME280;51941;52.210;5.158;2022-08-21T07:54:25;101273.25;;;24.97;49.81
65329;BME280;51941;52.210;5.158;2022-08-21T07:56:53;101367.72;;;25.55;49.28
65329;BME280;51941;52.210;5.158;2022-08-21T07:59:20;101409.00;;;25.61;50.05
65329;BME280;51941;52.210;5.158;2022-08-21T08:01:47;101526.81;;;26.38;49.79
65329;BME280;51941;52.210;5.158;2022-08-21T08:04:14;101548.03;;;26.79;49.61
65329;BME280;51941;52.210;5.158;2022-08-21T08:06:41;101575.78;;;27.01;49.47
65329;BME280;51941;52.210;5.158;2022-08-21T08:09:08;101466.16;;;26.33;49.52
65329;BME280;51941;52.210;5.158;2022-08-21T08:11:36;101297.53;;;25.37;49.05
65329;BME280;51941;52.210;5.158;2022-08-21T08:14:07;101465.16;;;26.38;48.96
65329;BME280;51941;52.210;5.158;2022-08-21T08:16:35;101599.78;;;26.82;49.48
65329;BME280;51941;52.210;5.158;2022-08-21T08:19:01;101379.19;;;25.61;49.63
65329;BME280;51941;52.210;5.158;2022-08-21T08:21:29;101555.38;;;26.87;49.54
65329;BME280;51941;52.210;5.158;2022-08-21T08:23:58;101426.75;;;25.93;49.55
65329;BME280;51941;52.210;5.158;2022-08-21T08:26:25;101245.03;;;23.93;50.62
65329;BME280;51941;52.210;5.158;2022-08-21T08:28:52;101284.34;;;23.99;51.56
65329;BME280;51941;52.210;5.158;2022-08-21T08:31:21;101375.84;;;24.90;51.35
65329;BME280;51941;52.210;5.158;2022-08-21T08:33:51;101361.50;;;24.90;51.24
65329;BME280;51941;52.210;5.158;2022-08-21T08:36:18;101572.13;;;26.20;51.46
65329;BME280;51941;52.210;5.158;2022-08-21T08:38:46;101570.38;;;25.98;52.00
65329;BME280;51941;52.210;5.158;2022-08-21T08:41:15;101490.00;;;25.45;52.00
65329;BME280;51941;52.210;5.158;2022-08-21T08:43:49;101467.00;;;25.34;52.03
65329;BME280;51941;52.210;5.158;2022-08-21T08:46:20;101572.28;;;25.98;52.05
65329;BME280;51941;52.210;5.158;2022-08-21T08:48:53;101517.63;;;25.65;52.27
65329;BME280;51941;52.210;5.158;2022-08-21T08:51:25;101563.38;;;26.14;51.84
65329;BME280;51941;52.210;5.158;2022-08-21T08:53:56;101468.63;;;25.52;51.77
65329;BME280;51941;52.210;5.158;2022-08-21T08:56:29;101565.69;;;25.81;52.03
65329;BME280;51941;52.210;5.158;2022-08-21T08:59:00;101513.59;;;24.61;53.91
65329;BME280;51941;52.210;5.158;2022-08-21T09:01:28;101416.53;;;23.65;54.98
65329;BME280;51941;52.210;5.158;2022-08-21T09:03:56;101560.81;;;24.32;56.05
65329;BME280;51941;52.210;5.158;2022-08-21T09:09:34;101526.53;;;24.28;56.40
65329;BME280;51941;52.210;5.158;2022-08-21T09:12:09;101456.31;;;23.87;56.45
65329;BME280;51941;52.210;5.158;2022-08-21T09:14:50;101455.31;;;23.83;56.63
65329;BME280;51941;52.210;5.158;2022-08-21T09:17:29;101553.06;;;24.75;55.94
65329;BME280;51941;52.210;5.158;2022-08-21T09:20:16;101544.28;;;24.78;55.21
65329;BME280;51941;52.210;5.158;2022-08-21T09:22:52;101562.72;;;25.21;54.64
65329;BME280;51941;52.210;5.158;2022-08-21T09:25:26;101566.38;;;25.47;53.69
65329;BME280;51941;52.210;5.158;2022-08-21T09:27:54;101570.09;;;25.69;53.19
65329;BME280;51941;52.210;5.158;2022-08-21T09:30:25;101455.53;;;25.06;52.82
65329;BME280;51941;52.210;5.158;2022-08-21T09:32:53;101570.44;;;25.84;52.46
65329;BME280;51941;52.210;5.158;2022-08-21T09:35:23;101508.22;;;25.62;52.33
65329;BME280;51941;52.210;5.158;2022-08-21T09:37:53;101572.28;;;25.98;52.35
65329;BME280;51941;52.210;5.158;2022-08-21T09:40:29;101570.16;;;25.86;52.00
65329;BME280;51941;52.210;5.158;2022-08-21T09:42:58;101404.56;;;24.69;52.52
65329;BME280;51941;52.210;5.158;2022-08-21T09:45:25;101560.22;;;25.64;52.70
65329;BME280;51941;52.210;5.158;2022-08-21T09:47:53;101543.09;;;25.46;52.87
65329;BME280;51941;52.210;5.158;2022-08-21T09:50:24;101354.59;;;24.13;52.75
65329;BME280;51941;52.210;5.158;2022-08-21T09:52:54;101301.19;;;23.96;52.87
65329;BME280;51941;52.210;5.158;2022-08-21T09:55:32;101320.56;;;24.21;52.02
65329;BME280;51941;52.210;5.158;2022-08-21T09:58:17;101544.00;;;25.90;51.71
65329;BME280;51941;52.210;5.158;2022-08-21T10:00:45;101538.31;;;26.00;51.13
65329;BME280;51941;52.210;5.158;2022-08-21T10:03:15;101483.19;;;25.74;50.27
65329;BME280;51941;52.210;5.158;2022-08-21T10:05:55;101559.06;;;26.13;50.08
65329;BME280;51941;52.210;5.158;2022-08-21T10:08:24;101501.19;;;25.70;49.95
65329;BME280;51941;52.210;5.158;2022-08-21T10:10:54;101548.38;;;26.17;50.16
65329;BME280;51941;52.210;5.158;2022-08-21T10:13:30;101549.50;;;26.24;50.27
65329;BME280;51941;52.210;5.158;2022-08-21T10:16:15;101470.13;;;25.93;49.76
65329;BME280;51941;52.210;5.158;2022-08-21T10:18:54;101416.81;;;25.63;49.70
65329;BME280;51941;52.210;5.158;2022-08-21T10:21:28;101199.06;;;24.33;49.17
65329;BME280;51941;52.210;5.158;2022-08-21T10:24:08;101473.47;;;25.81;49.39
65329;BME280;51941;52.210;5.158;2022-08-21T10:26:49;101476.97;;;25.65;50.19
65329;BME280;51941;52.210;5.158;2022-08-21T10:29:34;101394.81;;;24.99;50.42
65329;BME280;51941;52.210;5.158;2022-08-21T10:32:14;101547.13;;;25.75;50.86
65329;BME280;51941;52.210;5.158;2022-08-21T10:34:51;101552.38;;;25.63;51.03
65329;BME280;51941;52.210;5.158;2022-08-21T10:37:31;101419.66;;;24.61;51.12
65329;BME280;51941;52.210;5.158;2022-08-21T10:40:14;101489.72;;;24.85;51.06
65329;BME280;51941;52.210;5.158;2022-08-21T10:42:58;101537.91;;;25.05;50.91
65329;BME280;51941;52.210;5.158;2022-08-21T10:45:38;101465.56;;;24.66;51.17
65329;BME280;51941;52.210;5.158;2022-08-21T10:48:15;101539.22;;;25.08;51.50
65329;BME280;51941;52.210;5.158;2022-08-21T10:50:50;101467.13;;;24.45;52.22
65329;BME280;51941;52.210;5.158;2022-08-21T10:53:48;101373.94;;;23.48;53.75
65329;BME280;51941;52.210;5.158;2022-08-21T10:56:20;101385.16;;;23.42;54.06
65329;BME280;51941;52.210;5.158;2022-08-21T10:59:02;101524.44;;;24.25;54.72
65329;BME280;51941;52.210;5.158;2022-08-21T11:01:44;101340.47;;;22.81;55.48
65329;BME280;51941;52.210;5.158;2022-08-21T11:04:16;101218.41;;;22.15;54.71
65329;BME280;51941;52.210;5.158;2022-08-21T11:06:48;101403.78;;;23.43;55.02
65329;BME280;51941;52.210;5.158;2022-08-21T11:09:20;101319.25;;;23.15;54.11
65329;BME280;51941;52.210;5.158;2022-08-21T11:11:54;101542.47;;;24.65;53.34
65329;BME280;51941;52.210;5.158;2022-08-21T11:14:29;101400.94;;;23.84;52.67
65329;BME280;51941;52.210;5.158;2022-08-21T11:17:02;101399.28;;;24.10;52.14
65329;BME280;51941;52.210;5.158;2022-08-21T11:19:36;101531.28;;;25.11;50.80
65329;BME280;51941;52.210;5.158;2022-08-21T11:22:11;101359.25;;;23.99;50.45
65329;BME280;51941;52.210;5.158;2022-08-21T11:24:46;101467.09;;;24.59;50.35
65329;BME280;51941;52.210;5.158;2022-08-21T11:27:21;101537.50;;;25.12;50.33
65329;BME280;51941;52.210;5.158;2022-08-21T11:29:52;101341.06;;;24.13;50.05
65329;BME280;51941;52.210;5.158;2022-08-21T11:32:35;101560.47;;;25.45;49.73
65329;BME280;51941;52.210;5.158;2022-08-21T11:35:20;101190.41;;;23.16;49.75
65329;BME280;51941;52.210;5.158;2022-08-21T11:38:01;101458.06;;;24.94;50.38
65329;BME280;51941;52.210;5.158;2022-08-21T11:40:53;101431.41;;;24.88;49.62
65329;BME280;51941;52.210;5.158;2022-08-21T11:43:38;101191.00;;;23.49;50.05
65329;BME280;51941;52.210;5.158;2022-08-21T11:48:50;101498.19;;;25.71;49.54
65329;BME280;51941;52.210;5.158;2022-08-21T11:51:29;101547.41;;;26.21;48.52
65329;BME280;51941;52.210;5.158;2022-08-21T11:54:07;101489.72;;;25.73;48.70
65329;BME280;51941;52.210;5.158;2022-08-21T11:56:40;101555.84;;;26.11;48.01
65329;BME280;51941;52.210;5.158;2022-08-21T11:59:25;101553.31;;;26.15;47.45
65329;BME280;51941;52.210;5.158;2022-08-21T12:01:56;101234.44;;;24.05;47.81
65329;BME280;51941;52.210;5.158;2022-08-21T12:04:30;101520.66;;;25.72;48.22
65329;BME280;51941;52.210;5.158;2022-08-21T12:07:10;101493.53;;;25.23;48.37
65329;BME280;51941;52.210;5.158;2022-08-21T12:09:38;101407.59;;;24.45;48.88
65329;BME280;51941;52.210;5.158;2022-08-21T12:12:12;101335.41;;;24.01;48.60
65329;BME280;51941;52.210;5.158;2022-08-21T12:14:42;101416.56;;;24.54;48.60
65329;BME280;51941;52.210;5.158;2022-08-21T12:17:18;101477.81;;;24.95;47.89
65329;BME280;51941;52.210;5.158;2022-08-21T12:19:57;101501.28;;;25.08;48.18
65329;BME280;51941;52.210;5.158;2022-08-21T12:22:36;101472.44;;;25.03;47.57
65329;BME280;51941;52.210;5.158;2022-08-21T12:25:06;101548.69;;;25.58;47.95
65329;BME280;51941;52.210;5.158;2022-08-21T12:27:45;101447.69;;;24.96;47.43
65329;BME280;51941;52.210;5.158;2022-08-21T12:30:23;101442.28;;;24.96;47.18
65329;BME280;51941;52.210;5.158;2022-08-21T12:33:00;101519.94;;;25.49;47.43
65329;BME280;51941;52.210;5.158;2022-08-21T12:35:32;101528.59;;;25.59;47.43
65329;BME280;51941;52.210;5.158;2022-08-21T12:38:04;101545.78;;;25.94;47.41
65329;BME280;51941;52.210;5.158;2022-08-21T12:40:39;101554.44;;;26.14;46.81
65329;BME280;51941;52.210;5.158;2022-08-21T12:43:13;101507.63;;;25.82;46.12
65329;BME280;51941;52.210;5.158;2022-08-21T12:45:43;101430.34;;;25.37;45.84
65329;BME280;51941;52.210;5.158;2022-08-21T12:48:14;101330.84;;;24.72;46.24
65329;BME280;51941;52.210;5.158;2022-08-21T12:50:48;101502.97;;;25.83;46.46
65329;BME280;51941;52.210;5.158;2022-08-21T12:53:26;101562.56;;;26.05;46.57
65329;BME280;51941;52.210;5.158;2022-08-21T12:55:57;101509.34;;;25.70;46.97
65329;BME280;51941;52.210;5.158;2022-08-21T12:58:29;101565.09;;;26.10;46.42
65329;BME280;51941;52.210;5.158;2022-08-21T13:01:03;101444.94;;;25.18;46.10
65329;BME280;51941;52.210;5.158;2022-08-21T13:03:31;101555.78;;;25.85;46.81
65329;BME280;51941;52.210;5.158;2022-08-21T13:06:03;101560.56;;;25.80;46.82
65329;BME280;51941;52.210;5.158;2022-08-21T13:08:31;101547.34;;;25.87;46.30
65329;BME280;51941;52.210;5.158;2022-08-21T13:11:02;101493.50;;;25.46;46.55